Archival Weather

Chicago O'Hare International

Chicago, Illinois (KORD)

Report from: Saturday, December 31, 2022 5:51 PM CST
Current time: Monday, March 4, 2024 7:25 PM CST

Current weather – Weather history – Daily summaries
Weather forecast

Temperature2.8°C (37.0°F)
Dew point-3.3°C (26.1°F)
Winds Calm
Visibility10 mi. (16.1 km)
Clouds Scattered clouds 9,000 ft. (2,743 m)
Ceiling: Broken clouds 15,000 ft. (4,572 m)
Broken clouds 20,000 ft. (6,096 m)
Altimeter29.88 in.Hg (1012 mB)
Relative humidity64 %
Density altitude-1,388 ft. (-423 m)
Sea-level pressure101.3 kPa (1013 mB, 29.91 in.Hg)
Max temp last 6 hours3.9°C (39.0°F)
Min temp last 6 hours1.7°C (35.1°F)
Remarks Automated weather observing station with precipitation discriminator
Pressure falling, then rising
Flight conditions Visual Meteorological Conditions
Raw dataKORD 312351Z 00000KT 10SM SCT090 BKN150 BKN200 03/M03 A2988 RMK AO2 SLP127 T00281033 10039 20017 55000
An error has occurred. This application may no longer respond until reloaded. Reload 🗙